Mead, Nebraska
Current Conditions -  °F | °C
As of 8:15 PM on Thursday 20 Nov 2014 (Local Time) from KAHQ Reporting Station
Clear Clear  
Wind Chill: 18°   Ceiling: Unl
Heat Index: 18°   Visibility: 10mi
Dew Point: 13°   Wind: 3mph
Humidity: 80%   Direction: 80°E
Pressure: 30.22"   Gusts: NA
Location:  41.23°N, 96.49°W
Report Text: KAHQ 210215Z AUTO 08003KT 10SM CLR M08/M11 A3022 RMK AO2 T10771106
Loading
Personal Weather Stations






























Interactive Weather Map New forecast layout! Learn more

10-Day Weather Forecast

Advertisements
Track Severe Weather on mobile